Coroico, Bolivia
Current Conditions -  °F | °C
As of 11:00 AM on Friday 28 Nov 2014 (Local Time) from SLLP Reporting Station
Broken Clouds Broken Clouds  
Wind Chill: 57°   Ceiling: 20000
Heat Index: 57°   Visibility: 6mi
Dew Point: 36°   Wind: 13mph
Humidity: 44%   Direction: 100°E
Pressure: 30.62"   Gusts: NA
Location:  16.19°S, 67.72°W
Report Text: SLLP 281500Z 10011KT 9999 SCT015 BKN200 14/02 Q1037
Loading
Personal Weather Stations






























Interactive Weather Map New forecast layout! Learn more

10-Day Weather Forecast

Advertisements
Track Severe Weather on mobile